createdAt,value
2022-10-08T00:01:26.399Z,99.90
2022-10-08T00:03:54.968Z,99.90
2022-10-08T00:06:25.886Z,99.90
2022-10-08T00:08:56.334Z,99.90
2022-10-08T00:11:29.691Z,99.90
2022-10-08T00:13:57.783Z,99.90
2022-10-08T00:16:28.082Z,99.90
2022-10-08T00:19:03.792Z,99.90
2022-10-08T00:21:34.348Z,99.90
2022-10-08T00:24:04.208Z,99.90
2022-10-08T00:26:33.507Z,99.90
2022-10-08T00:29:04.314Z,99.90
2022-10-08T00:31:33.286Z,99.90
2022-10-08T00:34:03.546Z,99.90
2022-10-08T00:36:32.228Z,99.90
2022-10-08T00:39:06.078Z,99.90
2022-10-08T00:41:37.238Z,99.90
2022-10-08T00:44:43.579Z,99.90
2022-10-08T00:47:33.637Z,99.90
2022-10-08T00:50:11.756Z,99.90
2022-10-08T00:52:48.699Z,99.90
2022-10-08T00:55:19.994Z,99.90
2022-10-08T00:57:47.660Z,99.90
2022-10-08T01:00:22.239Z,99.90
2022-10-08T01:02:50.170Z,99.90
2022-10-08T01:05:22.934Z,99.90
2022-10-08T01:08:12.105Z,99.90
2022-10-08T01:10:45.239Z,99.90
2022-10-08T01:13:19.603Z,99.90
2022-10-08T01:15:57.544Z,99.90
2022-10-08T01:18:55.244Z,99.90
2022-10-08T01:21:52.332Z,99.90
2022-10-08T01:25:01.941Z,99.90
2022-10-08T01:27:42.924Z,99.90
2022-10-08T01:30:16.367Z,99.90
2022-10-08T01:32:51.253Z,99.90
2022-10-08T01:35:26.328Z,99.90
2022-10-08T01:37:57.399Z,99.90
2022-10-08T01:40:31.077Z,99.90
2022-10-08T01:43:00.836Z,99.90
2022-10-08T01:45:34.223Z,99.90
2022-10-08T01:48:06.564Z,99.90
2022-10-08T01:50:41.711Z,99.90
2022-10-08T01:53:13.145Z,99.90
2022-10-08T01:55:44.921Z,99.90
2022-10-08T01:58:18.617Z,99.90
2022-10-08T02:00:49.936Z,99.90
2022-10-08T02:03:17.495Z,99.90
2022-10-08T02:05:50.415Z,99.90
2022-10-08T02:08:18.632Z,99.90
2022-10-08T02:10:45.971Z,99.90
2022-10-08T02:13:13.619Z,99.90
2022-10-08T02:15:48.822Z,99.90
2022-10-08T02:18:24.354Z,99.90
2022-10-08T02:21:03.954Z,99.90
2022-10-08T02:23:40.017Z,99.90
2022-10-08T02:26:14.333Z,99.90
2022-10-08T02:28:57.138Z,99.90
2022-10-08T02:31:46.683Z,99.90
2022-10-08T02:34:37.824Z,99.90
2022-10-08T02:37:19.323Z,99.90
2022-10-08T02:39:51.256Z,99.90
2022-10-08T02:42:22.224Z,99.90
2022-10-08T02:45:07.629Z,99.90
2022-10-08T02:47:38.557Z,99.90
2022-10-08T02:50:11.676Z,99.90
2022-10-08T02:52:42.853Z,99.90
2022-10-08T02:55:38.028Z,99.90
2022-10-08T02:58:09.964Z,99.90
2022-10-08T03:00:49.720Z,99.90
2022-10-08T03:03:25.689Z,99.90
2022-10-08T03:05:54.411Z,99.90
2022-10-08T03:08:21.940Z,99.90
2022-10-08T03:10:50.597Z,99.90
2022-10-08T03:13:19.049Z,99.90
2022-10-08T03:15:49.630Z,99.90
2022-10-08T03:18:18.279Z,99.90
2022-10-08T03:20:49.515Z,99.90
2022-10-08T03:23:18.580Z,99.90
2022-10-08T03:25:46.163Z,99.90
2022-10-08T03:28:13.688Z,99.90
2022-10-08T03:30:41.392Z,99.90
2022-10-08T03:33:09.055Z,99.90
2022-10-08T03:35:36.519Z,99.90
2022-10-08T03:38:03.964Z,99.90
2022-10-08T03:40:31.474Z,99.90
2022-10-08T03:42:58.910Z,99.90
2022-10-08T03:45:26.352Z,99.90
2022-10-08T03:47:53.874Z,99.90
2022-10-08T03:50:22.035Z,99.90
2022-10-08T03:52:49.770Z,99.90
2022-10-08T03:55:17.938Z,99.90
2022-10-08T03:57:45.335Z,99.90
2022-10-08T04:00:13.215Z,99.90
2022-10-08T04:02:40.754Z,99.90
2022-10-08T04:05:08.633Z,99.90
2022-10-08T04:07:36.142Z,99.90
2022-10-08T04:10:03.975Z,99.90
2022-10-08T04:12:31.401Z,99.90
2022-10-08T04:14:59.005Z,99.90
2022-10-08T04:17:26.433Z,99.90
2022-10-08T04:19:53.919Z,99.90
2022-10-08T04:22:21.366Z,99.90
2022-10-08T04:24:48.769Z,99.90
2022-10-08T04:27:16.203Z,99.90
2022-10-08T04:29:43.800Z,99.90
2022-10-08T04:32:11.260Z,99.90
2022-10-08T04:34:38.708Z,99.90
2022-10-08T04:37:06.107Z,99.90
2022-10-08T04:39:33.938Z,99.90
2022-10-08T04:42:01.596Z,99.90
2022-10-08T04:44:29.034Z,99.90
2022-10-08T04:46:56.787Z,99.90
2022-10-08T04:49:25.503Z,99.90
2022-10-08T04:51:52.952Z,99.90
2022-10-08T04:54:20.350Z,99.90
2022-10-08T04:56:47.828Z,99.90
2022-10-08T04:59:15.445Z,99.90
2022-10-08T05:01:42.938Z,99.90
2022-10-08T05:04:10.450Z,99.90
2022-10-08T05:06:37.904Z,99.90
2022-10-08T05:09:05.460Z,99.90
2022-10-08T05:11:33.394Z,99.90
2022-10-08T05:14:01.189Z,99.90
2022-10-08T05:16:28.648Z,99.90
2022-10-08T05:18:56.815Z,99.90
2022-10-08T05:21:29.271Z,99.90
2022-10-08T05:23:57.882Z,99.90
2022-10-08T05:26:56.394Z,99.90
2022-10-08T05:29:16.293Z,99.90
2022-10-08T05:31:44.635Z,99.90
2022-10-08T05:34:13.599Z,99.90
2022-10-08T05:36:41.298Z,99.90
2022-10-08T05:39:10.194Z,99.90
2022-10-08T05:41:40.619Z,99.90
2022-10-08T05:44:09.979Z,99.90
2022-10-08T05:46:38.893Z,99.90
2022-10-08T05:49:08.804Z,99.90
2022-10-08T05:51:38.387Z,99.90
2022-10-08T05:54:05.906Z,99.90
2022-10-08T05:56:33.487Z,99.90
2022-10-08T05:59:00.907Z,99.90
2022-10-08T06:01:31.516Z,99.90
2022-10-08T06:04:07.833Z,99.90
2022-10-08T06:06:41.700Z,99.90
2022-10-08T06:09:12.877Z,99.90
2022-10-08T06:11:40.637Z,99.90
2022-10-08T06:14:11.363Z,99.90
2022-10-08T06:16:39.389Z,99.90
2022-10-08T06:19:07.849Z,99.90
2022-10-08T06:21:36.516Z,99.90
2022-10-08T06:24:06.834Z,99.90
2022-10-08T06:26:37.931Z,99.90
2022-10-08T06:29:12.563Z,99.90
2022-10-08T06:31:40.100Z,99.90
2022-10-08T06:34:07.868Z,99.90
2022-10-08T06:36:37.575Z,99.90
2022-10-08T06:39:07.909Z,99.90
2022-10-08T06:41:35.932Z,99.90
2022-10-08T06:44:06.285Z,99.90
2022-10-08T06:46:34.375Z,99.90
2022-10-08T06:49:03.397Z,99.90
2022-10-08T06:51:30.989Z,99.90
2022-10-08T06:54:06.000Z,99.90
2022-10-08T06:56:36.713Z,99.90
2022-10-08T06:59:05.597Z,99.90
2022-10-08T07:01:34.629Z,99.90
2022-10-08T07:04:03.302Z,99.90
2022-10-08T07:06:31.010Z,99.90
2022-10-08T07:09:00.870Z,99.90
2022-10-08T07:11:30.224Z,99.90
2022-10-08T07:13:57.860Z,99.90
2022-10-08T07:16:27.598Z,99.90
2022-10-08T07:18:57.096Z,99.90
2022-10-08T07:21:25.115Z,99.90
2022-10-08T07:23:52.956Z,99.90
2022-10-08T07:26:26.578Z,99.90
2022-10-08T07:29:05.779Z,99.90
2022-10-08T07:31:36.152Z,99.90
2022-10-08T07:34:06.770Z,99.90
2022-10-08T07:36:35.080Z,99.90
2022-10-08T07:39:07.986Z,99.90
2022-10-08T07:41:35.901Z,99.90
2022-10-08T07:44:04.725Z,99.90
2022-10-08T07:46:37.530Z,99.90
2022-10-08T07:49:05.263Z,99.90
2022-10-08T07:51:34.244Z,99.90
2022-10-08T07:54:04.816Z,99.90
2022-10-08T07:56:33.706Z,99.90
2022-10-08T07:59:02.071Z,99.90
2022-10-08T08:01:30.633Z,99.90
2022-10-08T08:04:00.930Z,99.90
2022-10-08T08:06:29.353Z,99.90
2022-10-08T08:08:57.011Z,99.90
2022-10-08T08:11:25.232Z,99.90
2022-10-08T08:13:52.869Z,99.90
2022-10-08T08:16:25.318Z,99.90
2022-10-08T08:18:55.786Z,99.90
2022-10-08T08:21:31.852Z,99.90
2022-10-08T08:24:05.130Z,99.90
2022-10-08T08:26:35.744Z,99.90
2022-10-08T08:29:06.466Z,99.90
2022-10-08T08:31:37.118Z,99.90
2022-10-08T08:34:10.548Z,99.90
2022-10-08T08:36:40.469Z,99.90
2022-10-08T08:39:13.836Z,99.90
2022-10-08T08:41:47.152Z,99.90
2022-10-08T08:44:21.980Z,99.90
2022-10-08T08:47:05.253Z,99.90
2022-10-08T08:49:41.619Z,99.90
2022-10-08T08:52:12.315Z,99.90
2022-10-08T08:54:39.908Z,99.90
2022-10-08T08:57:48.747Z,99.90
2022-10-08T09:00:22.367Z,99.90
2022-10-08T09:03:05.310Z,99.90
2022-10-08T09:05:39.067Z,99.90
2022-10-08T09:08:18.724Z,99.90
2022-10-08T09:10:54.069Z,99.90
2022-10-08T09:13:45.473Z,99.90
2022-10-08T09:16:16.519Z,99.90
2022-10-08T09:18:50.177Z,99.90
2022-10-08T09:21:18.620Z,99.90
2022-10-08T09:23:46.599Z,99.90
2022-10-08T09:26:21.745Z,99.90
2022-10-08T09:28:58.055Z,99.90
2022-10-08T09:31:40.385Z,99.90
2022-10-08T09:34:10.729Z,99.90
2022-10-08T09:37:00.326Z,99.90
2022-10-08T09:39:33.881Z,99.90
2022-10-08T09:42:07.444Z,99.90
2022-10-08T09:44:56.793Z,99.90
2022-10-08T09:47:25.960Z,99.90
2022-10-08T09:50:15.421Z,99.90
2022-10-08T09:52:43.231Z,99.90
2022-10-08T09:55:16.635Z,99.90
2022-10-08T09:57:54.060Z,99.90
2022-10-08T10:00:28.295Z,99.90
2022-10-08T10:02:57.999Z,99.90
2022-10-08T10:05:36.074Z,99.90
2022-10-08T10:08:03.883Z,99.90
2022-10-08T10:10:42.203Z,99.90
2022-10-08T10:13:20.365Z,99.90
2022-10-08T10:15:56.840Z,99.90
2022-10-08T10:18:32.621Z,99.90
2022-10-08T10:21:05.639Z,99.90
2022-10-08T10:23:39.108Z,99.90
2022-10-08T10:26:20.648Z,99.90
2022-10-08T10:28:59.859Z,99.90
2022-10-08T10:31:45.170Z,99.90
2022-10-08T10:34:28.328Z,99.90
2022-10-08T10:36:58.713Z,99.90
2022-10-08T10:39:41.547Z,99.90
2022-10-08T10:42:39.507Z,99.90
2022-10-08T10:45:23.306Z,99.90
2022-10-08T10:47:53.725Z,99.90
2022-10-08T10:50:48.388Z,99.90
2022-10-08T10:53:28.844Z,99.90
2022-10-08T10:56:18.414Z,99.90
2022-10-08T10:59:04.596Z,99.90
2022-10-08T11:02:09.348Z,99.90
2022-10-08T11:04:51.000Z,99.90
2022-10-08T11:07:34.040Z,99.90
2022-10-08T11:10:16.487Z,99.90
2022-10-08T11:12:59.368Z,99.90
2022-10-08T11:15:36.154Z,99.90
2022-10-08T11:18:03.614Z,99.90
2022-10-08T11:20:49.001Z,99.90
2022-10-08T11:23:42.146Z,99.90
2022-10-08T11:26:27.120Z,99.90
2022-10-08T11:29:14.280Z,99.90
2022-10-08T11:31:44.142Z,99.90
2022-10-08T11:34:29.586Z,99.90
2022-10-08T11:37:06.042Z,99.90
2022-10-08T11:39:52.385Z,99.90
2022-10-08T11:42:29.522Z,99.90
2022-10-08T11:45:29.510Z,99.90
2022-10-08T11:47:59.599Z,99.90
2022-10-08T11:50:32.980Z,99.90
2022-10-08T11:53:09.508Z,99.90
2022-10-08T11:55:47.370Z,99.90
2022-10-08T11:58:30.360Z,99.90
2022-10-08T12:01:06.585Z,99.90
2022-10-08T12:03:40.161Z,99.90
2022-10-08T12:06:29.807Z,99.90
2022-10-08T12:09:03.195Z,99.90
2022-10-08T12:11:39.698Z,99.90
2022-10-08T12:14:12.252Z,99.90
2022-10-08T12:16:48.670Z,99.90
2022-10-08T12:19:37.014Z,99.90
2022-10-08T12:22:16.641Z,99.50
2022-10-08T12:24:49.727Z,99.30
2022-10-08T12:27:18.055Z,99.20
2022-10-08T12:30:02.273Z,98.90
2022-10-08T12:32:51.101Z,97.90
2022-10-08T12:35:24.465Z,97.80
2022-10-08T12:37:52.384Z,97.60
2022-10-08T12:40:22.835Z,96.90
2022-10-08T12:42:58.254Z,96.30
2022-10-08T12:45:34.260Z,96.00
2022-10-08T12:48:12.192Z,95.90
2022-10-08T12:50:53.751Z,95.80
2022-10-08T12:53:22.200Z,95.80
2022-10-08T12:55:58.217Z,95.40
2022-10-08T12:58:35.576Z,95.00
2022-10-08T13:01:05.185Z,94.90
2022-10-08T13:03:32.915Z,94.20
2022-10-08T13:06:16.450Z,94.20
2022-10-08T13:08:44.985Z,93.10
2022-10-08T13:11:14.718Z,92.70
2022-10-08T13:13:49.513Z,92.90
2022-10-08T13:16:25.192Z,92.60
2022-10-08T13:18:58.704Z,92.50
2022-10-08T13:21:31.982Z,92.50
2022-10-08T13:24:04.009Z,92.50
2022-10-08T13:26:38.960Z,92.40
2022-10-08T13:29:21.503Z,92.20
2022-10-08T13:31:59.885Z,91.70
2022-10-08T13:34:55.761Z,91.20
2022-10-08T13:37:23.155Z,90.90
2022-10-08T13:39:54.908Z,91.20
2022-10-08T13:42:29.793Z,91.40
2022-10-08T13:45:02.128Z,91.40
2022-10-08T13:47:29.755Z,91.30
2022-10-08T13:50:03.373Z,91.00
2022-10-08T13:52:33.944Z,91.20
2022-10-08T13:55:04.732Z,91.20
2022-10-08T13:57:33.288Z,90.60
2022-10-08T14:00:01.783Z,90.30
2022-10-08T14:02:31.326Z,90.30
2022-10-08T14:04:59.350Z,90.00
2022-10-08T14:07:32.890Z,89.40
2022-10-08T14:10:07.114Z,88.40
2022-10-08T14:12:35.469Z,89.10
2022-10-08T14:15:03.058Z,87.10
2022-10-08T14:17:30.953Z,86.10
2022-10-08T14:19:59.014Z,86.60
2022-10-08T14:22:26.444Z,85.90
2022-10-08T14:24:53.996Z,85.40
2022-10-08T14:27:21.497Z,85.50
2022-10-08T14:29:48.950Z,85.20
2022-10-08T14:32:16.510Z,85.20
2022-10-08T14:34:43.933Z,85.10
2022-10-08T14:37:11.488Z,84.80
2022-10-08T14:39:39.056Z,84.30
2022-10-08T14:42:09.524Z,83.70
2022-10-08T14:44:36.964Z,83.60
2022-10-08T14:47:04.454Z,83.80
2022-10-08T14:49:31.960Z,83.50
2022-10-08T14:51:59.753Z,83.90
2022-10-08T14:54:28.076Z,83.70
2022-10-08T14:56:55.492Z,84.50
2022-10-08T14:59:22.960Z,84.40
2022-10-08T15:01:50.469Z,83.20
2022-10-08T15:04:18.013Z,83.30
2022-10-08T15:06:45.608Z,84.20
2022-10-08T15:09:15.338Z,84.80
2022-10-08T15:11:43.493Z,85.70
2022-10-08T15:14:11.168Z,86.40
2022-10-08T15:16:39.566Z,86.70
2022-10-08T15:19:07.784Z,86.30
2022-10-08T15:21:37.540Z,86.40
2022-10-08T15:24:05.123Z,86.00
2022-10-08T15:26:32.727Z,86.60
2022-10-08T15:29:01.307Z,86.20
2022-10-08T15:31:29.497Z,86.30
2022-10-08T15:33:59.591Z,86.70
2022-10-08T15:36:28.142Z,86.90
2022-10-08T15:39:06.215Z,87.30
2022-10-08T15:41:34.886Z,87.60
2022-10-08T15:44:29.665Z,87.80
2022-10-08T15:47:02.592Z,88.80
2022-10-08T15:49:33.892Z,88.70
2022-10-08T15:52:02.373Z,88.90
2022-10-08T15:54:30.121Z,88.40
2022-10-08T15:56:57.594Z,88.10
2022-10-08T15:59:25.085Z,87.90
2022-10-08T16:01:52.610Z,87.80
2022-10-08T16:04:20.083Z,88.20
2022-10-08T16:06:47.632Z,88.50
2022-10-08T16:09:16.897Z,88.20
2022-10-08T16:11:45.960Z,88.50
2022-10-08T16:14:16.687Z,88.60
2022-10-08T16:16:44.830Z,89.00
2022-10-08T16:19:13.274Z,89.30
2022-10-08T16:21:40.739Z,89.40
2022-10-08T16:24:08.882Z,89.90
2022-10-08T16:26:36.618Z,90.00
2022-10-08T16:29:06.863Z,90.30
2022-10-08T16:31:36.738Z,90.50
2022-10-08T16:34:07.446Z,90.50
2022-10-08T16:36:36.662Z,90.70
2022-10-08T16:39:06.315Z,90.70
2022-10-08T16:41:35.008Z,90.70
2022-10-08T16:44:12.741Z,90.70
2022-10-08T16:46:44.662Z,90.80
2022-10-08T16:49:23.676Z,90.80
2022-10-08T16:51:58.106Z,90.90
2022-10-08T16:54:26.845Z,90.90
2022-10-08T16:56:54.719Z,91.10
2022-10-08T16:59:24.923Z,91.20
2022-10-08T17:01:55.086Z,91.50
2022-10-08T17:04:24.550Z,91.50
2022-10-08T17:06:52.454Z,91.70
2022-10-08T17:09:20.731Z,92.00
2022-10-08T17:11:48.498Z,92.40
2022-10-08T17:14:15.967Z,92.90
2022-10-08T17:16:44.937Z,93.20
2022-10-08T17:19:13.139Z,93.40
2022-10-08T17:21:40.814Z,93.80
2022-10-08T17:24:10.680Z,94.00
2022-10-08T17:26:38.700Z,94.30
2022-10-08T17:29:09.303Z,94.60
2022-10-08T17:31:37.607Z,94.90
2022-10-08T17:34:05.301Z,95.20
2022-10-08T17:36:35.424Z,95.50
2022-10-08T17:39:06.012Z,95.70
2022-10-08T17:41:36.412Z,96.00
2022-10-08T17:44:06.916Z,96.40
2022-10-08T17:46:46.077Z,96.70
2022-10-08T17:49:15.784Z,97.00
2022-10-08T17:51:44.677Z,97.20
2022-10-08T17:54:15.193Z,97.40
2022-10-08T17:56:43.596Z,97.70
2022-10-08T17:59:19.814Z,97.90
2022-10-08T18:01:47.512Z,98.30
2022-10-08T18:04:17.479Z,98.50
2022-10-08T18:06:46.662Z,98.70
2022-10-08T18:09:18.489Z,98.90
2022-10-08T18:11:49.218Z,99.20
2022-10-08T18:14:17.385Z,99.80
2022-10-08T18:16:48.110Z,99.60
2022-10-08T18:19:17.035Z,99.80
2022-10-08T18:21:44.775Z,99.90
2022-10-08T18:24:12.214Z,99.90
2022-10-08T18:26:39.822Z,99.90
2022-10-08T18:29:13.451Z,99.90
2022-10-08T18:31:42.627Z,99.90
2022-10-08T18:34:14.574Z,99.90
2022-10-08T18:36:42.529Z,99.90
2022-10-08T18:39:15.398Z,99.90
2022-10-08T18:41:48.509Z,99.90
2022-10-08T18:44:22.237Z,99.90
2022-10-08T18:46:50.326Z,99.90
2022-10-08T18:49:20.123Z,99.90
2022-10-08T18:51:49.532Z,99.90
2022-10-08T18:54:18.749Z,99.90
2022-10-08T18:56:46.430Z,99.90
2022-10-08T18:59:15.534Z,99.90
2022-10-08T19:01:46.279Z,99.90
2022-10-08T19:04:19.505Z,99.90
2022-10-08T19:06:48.691Z,99.90
2022-10-08T19:09:16.709Z,99.90
2022-10-08T19:11:46.775Z,99.90
2022-10-08T19:14:17.183Z,99.90
2022-10-08T19:16:45.650Z,99.90
2022-10-08T19:19:19.564Z,99.90
2022-10-08T19:21:48.231Z,99.90
2022-10-08T19:24:21.444Z,99.90
2022-10-08T19:26:49.899Z,99.90
2022-10-08T19:29:20.547Z,99.90
2022-10-08T19:31:49.965Z,99.90
2022-10-08T19:34:23.072Z,99.90
2022-10-08T19:36:50.774Z,99.90
2022-10-08T19:39:20.923Z,99.90
2022-10-08T19:41:49.504Z,99.90
2022-10-08T19:44:17.306Z,99.90
2022-10-08T19:46:44.957Z,99.90
2022-10-08T19:49:12.979Z,99.90
2022-10-08T19:51:40.760Z,99.90
2022-10-08T19:54:08.232Z,99.90
2022-10-08T19:56:36.327Z,99.90
2022-10-08T19:59:04.752Z,99.90
2022-10-08T20:01:35.493Z,99.90
2022-10-08T20:04:05.040Z,99.90
2022-10-08T20:06:35.688Z,99.90
2022-10-08T20:09:05.024Z,99.90
2022-10-08T20:11:33.486Z,99.90
2022-10-08T20:14:01.559Z,99.90
2022-10-08T20:16:32.619Z,99.90
2022-10-08T20:19:02.886Z,99.90
2022-10-08T20:21:32.360Z,99.90
2022-10-08T20:24:00.347Z,99.90
2022-10-08T20:26:30.760Z,99.90
2022-10-08T20:29:09.496Z,99.90
2022-10-08T20:31:40.254Z,99.90
2022-10-08T20:34:12.980Z,99.90
2022-10-08T20:36:41.209Z,99.90
2022-10-08T20:39:08.612Z,99.90
2022-10-08T20:41:36.221Z,99.90
2022-10-08T20:44:04.733Z,99.90
2022-10-08T20:46:34.146Z,99.90
2022-10-08T20:49:02.564Z,99.90
2022-10-08T20:51:31.179Z,99.90
2022-10-08T20:54:10.366Z,99.90
2022-10-08T20:56:40.264Z,99.90
2022-10-08T20:59:10.896Z,99.90
2022-10-08T21:01:38.989Z,99.90
2022-10-08T21:04:06.935Z,99.90
2022-10-08T21:06:40.961Z,99.90
2022-10-08T21:09:09.314Z,99.90
2022-10-08T21:11:38.202Z,99.90
2022-10-08T21:14:07.722Z,99.90
2022-10-08T21:16:38.677Z,99.90
2022-10-08T21:19:10.583Z,99.90
2022-10-08T21:21:38.456Z,99.90
2022-10-08T21:24:06.181Z,99.90
2022-10-08T21:26:38.929Z,99.90
2022-10-08T21:29:09.332Z,99.90
2022-10-08T21:31:38.702Z,99.90
2022-10-08T21:34:06.923Z,99.90
2022-10-08T21:36:37.999Z,99.90
2022-10-08T21:39:07.710Z,99.90
2022-10-08T21:41:39.594Z,99.90
2022-10-08T21:44:08.005Z,99.90
2022-10-08T21:46:38.200Z,99.90
2022-10-08T21:49:08.806Z,99.90
2022-10-08T21:51:37.075Z,99.90
2022-10-08T21:54:06.652Z,99.90
2022-10-08T21:56:36.736Z,99.90
2022-10-08T21:59:06.556Z,99.90
2022-10-08T22:01:48.850Z,99.90
2022-10-08T22:04:17.747Z,99.90
2022-10-08T22:06:48.455Z,99.90
2022-10-08T22:09:22.519Z,99.90
2022-10-08T22:11:50.761Z,99.90
2022-10-08T22:14:18.548Z,99.90
2022-10-08T22:16:46.460Z,99.90
2022-10-08T22:19:14.858Z,99.90
2022-10-08T22:21:42.583Z,99.90
2022-10-08T22:24:10.475Z,99.90
2022-10-08T22:26:40.913Z,99.90
2022-10-08T22:29:08.529Z,99.90
2022-10-08T22:31:36.763Z,99.90
2022-10-08T22:34:04.281Z,99.90
2022-10-08T22:36:33.372Z,99.90
2022-10-08T22:39:00.848Z,99.90
2022-10-08T22:41:31.351Z,99.90
2022-10-08T22:43:59.480Z,99.90
2022-10-08T22:46:30.196Z,99.90
2022-10-08T22:48:59.963Z,99.90
2022-10-08T22:51:28.542Z,99.90
2022-10-08T22:53:56.407Z,99.90
2022-10-08T22:56:28.089Z,99.90
2022-10-08T22:58:56.097Z,99.90
2022-10-08T23:01:24.730Z,99.90
2022-10-08T23:03:53.096Z,99.90
2022-10-08T23:06:24.006Z,99.90
2022-10-08T23:08:57.308Z,99.90
2022-10-08T23:11:25.608Z,99.90
2022-10-08T23:13:55.384Z,99.90
2022-10-08T23:16:24.117Z,99.90
2022-10-08T23:18:54.922Z,99.90
2022-10-08T23:21:23.499Z,99.90
2022-10-08T23:23:52.019Z,99.90
2022-10-08T23:26:19.758Z,99.90
2022-10-08T23:28:55.959Z,99.90
2022-10-08T23:31:26.271Z,99.90
2022-10-08T23:33:55.171Z,99.90
2022-10-08T23:36:25.435Z,99.90
2022-10-08T23:38:53.014Z,99.90
2022-10-08T23:41:20.685Z,99.90
2022-10-08T23:43:49.524Z,99.90
2022-10-08T23:46:20.920Z,99.90
2022-10-08T23:48:49.183Z,99.90
2022-10-08T23:51:17.198Z,99.90
2022-10-08T23:53:45.174Z,99.90
2022-10-08T23:56:14.104Z,99.90
2022-10-08T23:58:42.129Z,99.90
